Time;durP1;ratioP1;P1;durP2;ratioP2;P2;SDS_P1;SDS_P2;PMS_P1;PMS_P2;Temp;Humidity;BMP_temperature;BMP_pressure;BME280_temperature;BME280_humidity;BME280_pressure;Samples;Min_cycle;Max_cycle;Signal;HPM_P1;HPM_P2
2023/05/04 00:00:31;;;;;;;6.77;4.90;;;;;;;14.73;100.00;101832.72;2072265;28;20184;-62
2023/05/04 00:01:31;;;;;;;10.70;4.80;;;;;;;14.58;100.00;101813.94;2070905;28;20178;-62
2023/05/04 00:02:32;;;;;;;11.03;5.30;;;;;;;14.76;100.00;101843.00;2072560;28;20170;-62
2023/05/04 00:03:32;;;;;;;7.20;5.30;;;;;;;14.81;100.00;101841.75;2072662;28;20276;-63
2023/05/04 00:04:32;;;;;;;7.47;5.00;;;;;;;14.84;100.00;101852.81;2072047;28;20232;-62
2023/05/04 00:05:33;;;;;;;8.63;5.90;;;;;;;14.84;100.00;101841.66;2067516;28;20190;-62
2023/05/04 00:06:34;;;;;;;6.93;6.03;;;;;;;14.79;100.00;101839.38;2068077;28;20191;-62
2023/05/04 00:07:34;;;;;;;6.93;6.07;;;;;;;14.87;100.00;101840.00;2072599;28;20181;-63
2023/05/04 00:08:34;;;;;;;9.30;6.07;;;;;;;14.91;100.00;101849.09;2072492;28;20174;-62
2023/05/04 00:09:35;;;;;;;8.57;6.20;;;;;;;14.87;100.00;101845.59;2072358;28;20189;-62
2023/05/04 00:10:35;;;;;;;7.10;5.90;;;;;;;14.88;100.00;101839.56;2072672;28;20212;-62
2023/05/04 00:11:36;;;;;;;7.00;5.43;;;;;;;14.86;100.00;101838.44;2071826;28;20714;-62
2023/05/04 00:12:37;;;;;;;6.60;5.27;;;;;;;14.54;100.00;101790.88;2072062;28;20178;-62
2023/05/04 00:13:37;;;;;;;8.20;5.63;;;;;;;14.95;100.00;101833.03;2072141;28;20206;-62
2023/05/04 00:14:38;;;;;;;7.53;5.03;;;;;;;14.96;100.00;101829.81;2068554;28;20449;-62
2023/05/04 00:15:38;;;;;;;7.63;5.40;;;;;;;14.98;100.00;101834.97;2067164;28;20185;-63
2023/05/04 00:16:39;;;;;;;5.93;5.07;;;;;;;14.95;100.00;101830.22;2072276;28;20169;-62
2023/05/04 00:17:39;;;;;;;7.80;4.70;;;;;;;14.28;100.00;101734.09;2072622;28;20172;-62
2023/05/04 00:18:40;;;;;;;9.50;5.00;;;;;;;14.79;100.00;101805.88;2072698;28;20176;-62
2023/05/04 00:19:41;;;;;;;6.43;4.27;;;;;;;14.82;100.00;101826.56;2072783;28;20297;-63
2023/05/04 00:20:42;;;;;;;7.83;4.40;;;;;;;14.81;100.00;101822.97;2073892;28;20229;-62
2023/05/04 00:21:42;;;;;;;8.67;4.60;;;;;;;14.77;100.00;101830.66;2068659;28;20536;-62
2023/05/04 00:22:42;;;;;;;8.77;4.70;;;;;;;14.81;100.00;101825.00;2069540;28;20223;-62
2023/05/04 00:23:43;;;;;;;7.17;4.50;;;;;;;14.76;100.00;101831.09;2073790;28;20212;-63
2023/05/04 00:24:43;;;;;;;7.47;4.73;;;;;;;14.50;100.00;101804.16;2073963;28;20176;-62
2023/05/04 00:25:44;;;;;;;7.83;4.40;;;;;;;14.42;100.00;101792.34;2074019;28;20601;-62
2023/05/04 00:26:44;;;;;;;7.33;4.13;;;;;;;14.73;100.00;101831.94;2073504;28;20187;-61
2023/05/04 00:27:45;;;;;;;7.87;4.17;;;;;;;14.67;100.00;101839.25;2077019;28;20184;-62
2023/05/04 00:28:45;;;;;;;5.80;3.67;;;;;;;14.63;100.00;101828.16;2075650;28;20259;-62
2023/05/04 00:29:45;;;;;;;7.60;4.23;;;;;;;14.66;100.00;101834.88;2073622;28;20218;-62
2023/05/04 00:30:46;;;;;;;6.47;5.00;;;;;;;14.60;100.00;101819.88;2073185;28;20216;-61
2023/05/04 00:31:47;;;;;;;7.67;4.07;;;;;;;14.60;100.00;101826.22;2073619;28;20300;-62
2023/05/04 00:32:47;;;;;;;9.37;4.83;;;;;;;14.60;100.00;101837.38;2073425;28;20416;-62
2023/05/04 00:33:47;;;;;;;6.83;4.37;;;;;;;14.46;100.00;101820.16;2073769;28;20645;-61
2023/05/04 00:34:48;;;;;;;10.87;5.77;;;;;;;14.53;100.00;101831.16;2074129;28;20205;-62
2023/05/04 00:35:48;;;;;;;7.57;4.43;;;;;;;14.53;100.00;101834.75;2066382;28;20193;-61
2023/05/04 00:36:49;;;;;;;9.47;4.87;;;;;;;14.52;100.00;101837.97;2072125;28;20851;-63
2023/05/04 00:37:49;;;;;;;5.70;4.33;;;;;;;14.51;100.00;101830.81;2068677;28;20201;-62
2023/05/04 00:38:53;;;;;;;9.17;4.50;;;;;;;14.43;100.00;101832.97;2069697;28;20185;-61
2023/05/04 00:39:53;;;;;;;5.80;4.00;;;;;;;14.43;100.00;101835.75;2073372;28;20749;-62
2023/05/04 00:40:53;;;;;;;8.00;4.50;;;;;;;14.46;100.00;101829.34;2073739;28;20462;-61
2023/05/04 00:41:54;;;;;;;7.77;4.30;;;;;;;14.06;100.00;101760.81;2073747;28;20185;-62
2023/05/04 00:42:55;;;;;;;6.73;4.40;;;;;;;14.54;100.00;101835.53;2074044;28;20188;-62
2023/05/04 00:43:55;;;;;;;6.37;4.03;;;;;;;14.55;100.00;101837.88;2073552;28;20189;-61
2023/05/04 00:44:56;;;;;;;6.33;3.97;;;;;;;14.51;100.00;101828.03;2073670;28;20279;-62
2023/05/04 00:45:56;;;;;;;6.97;4.53;;;;;;;13.98;100.00;101770.50;2073728;28;20189;-62
2023/05/04 00:46:57;;;;;;;7.10;5.17;;;;;;;14.32;100.00;101814.88;2069636;28;20219;-62
2023/05/04 00:47:58;;;;;;;8.13;5.60;;;;;;;14.28;100.00;101814.94;2068532;28;20221;-63
2023/05/04 00:48:58;;;;;;;6.57;4.57;;;;;;;14.35;100.00;101831.53;2072125;28;20240;-62
2023/05/04 00:49:59;;;;;;;5.57;4.00;;;;;;;14.29;100.00;101824.88;2065903;28;20664;-62
2023/05/04 00:51:00;;;;;;;7.17;4.17;;;;;;;14.29;100.00;101826.91;2073957;28;20182;-62
2023/05/04 00:52:02;;;;;;;6.03;4.17;;;;;;;14.21;100.00;101829.03;2073366;28;20658;-62
2023/05/04 00:53:08;;;;;;;6.07;4.00;;;;;;;14.23;100.00;101834.97;2073212;28;20208;-63
2023/05/04 00:54:08;;;;;;;8.93;4.50;;;;;;;14.28;100.00;101830.88;2073939;28;20443;-62
2023/05/04 00:55:09;;;;;;;6.57;4.20;;;;;;;14.29;100.00;101833.25;2073395;28;20522;-62
2023/05/04 00:56:10;;;;;;;5.77;4.20;;;;;;;14.23;100.00;101840.53;2073657;28;20239;-62
2023/05/04 00:57:11;;;;;;;6.17;4.33;;;;;;;14.28;100.00;101840.03;2073805;28;20961;-62
2023/05/04 00:58:12;;;;;;;6.93;4.33;;;;;;;14.29;100.00;101838.81;2073856;28;20177;-62
2023/05/04 00:59:14;;;;;;;7.37;4.47;;;;;;;14.25;100.00;101840.13;2073004;28;20181;-62
2023/05/04 01:00:15;;;;;;;7.77;4.50;;;;;;;14.30;100.00;101842.41;2073233;28;20648;-62
2023/05/04 01:01:16;;;;;;;5.80;3.97;;;;;;;14.29;100.00;101829.69;2065730;28;20917;-62
2023/05/04 01:02:16;;;;;;;6.20;3.97;;;;;;;14.23;100.00;101842.53;2072283;28;20204;-62
2023/05/04 01:03:18;;;;;;;7.63;4.13;;;;;;;14.11;100.00;101832.78;2072888;28;20686;-62
2023/05/04 01:04:19;;;;;;;6.77;4.00;;;;;;;14.17;100.00;101841.44;2072419;28;20206;-62
2023/05/04 01:05:19;;;;;;;5.30;4.20;;;;;;;14.22;100.00;101849.31;2073474;28;20443;-62
2023/05/04 01:06:38;;;;;;;8.57;4.60;;;;;;;14.25;100.00;101846.47;2073686;28;20211;-62
2023/05/04 01:07:51;;;;;;;6.37;4.00;;;;;;;14.25;100.00;101851.28;2073837;28;20188;-62
2023/05/04 01:09:06;;;;;;;6.73;4.60;;;;;;;14.27;100.00;101840.47;2073548;28;20813;-62
2023/05/04 01:10:16;;;;;;;5.70;4.60;;;;;;;14.27;100.00;101844.06;2068847;28;20449;-62
2023/05/04 01:11:25;;;;;;;8.07;4.30;;;;;;;14.35;100.00;101853.84;2070140;28;20455;-62
2023/05/04 01:12:28;;;;;;;6.03;4.00;;;;;;;14.34;100.00;101845.91;2068540;28;20937;-63
2023/05/04 01:13:33;;;;;;;7.10;4.40;;;;;;;13.68;100.00;101744.84;2069629;28;20459;-62
2023/05/04 01:14:34;;;;;;;7.03;4.60;;;;;;;14.40;100.00;101850.56;2073532;28;20462;-62
2023/05/04 01:15:35;;;;;;;8.57;3.97;;;;;;;14.40;100.00;101844.22;2073650;28;20419;-62
2023/05/04 01:16:36;;;;;;;5.70;3.70;;;;;;;14.26;100.00;101825.75;2073122;28;20432;-61
2023/05/04 01:17:37;;;;;;;6.63;4.60;;;;;;;14.41;100.00;101837.41;2073287;28;20420;-62
2023/05/04 01:18:37;;;;;;;5.90;4.23;;;;;;;14.44;100.00;101840.13;2073939;28;20319;-62
2023/05/04 01:19:38;;;;;;;5.13;4.30;;;;;;;14.47;100.00;101841.25;2073491;28;20250;-62
2023/05/04 01:20:38;;;;;;;5.80;3.60;;;;;;;14.42;100.00;101834.19;2073018;28;20688;-62
2023/05/04 01:21:39;;;;;;;8.33;3.90;;;;;;;14.43;100.00;101841.34;2073296;28;20195;-62
2023/05/04 01:22:39;;;;;;;6.57;4.40;;;;;;;14.42;100.00;101836.19;2073131;28;20654;-62
2023/05/04 01:23:40;;;;;;;5.37;3.87;;;;;;;14.39;100.00;101837.06;2071127;28;20202;-63
2023/05/04 01:24:40;;;;;;;8.07;4.17;;;;;;;14.27;100.00;101809.78;2065454;28;20714;-62
2023/05/04 01:26:15;;;;;;;8.00;4.07;;;;;;;14.35;100.00;101836.34;2065881;28;20192;-62
2023/05/04 01:27:30;;;;;;;5.27;3.80;;;;;;;14.29;100.00;101835.28;2069479;28;20690;-62
2023/05/04 01:28:47;;;;;;;7.33;4.00;;;;;;;14.32;100.00;101837.19;2070021;28;20431;-63
2023/05/04 01:29:51;;;;;;;9.50;4.70;;;;;;;14.25;100.00;101826.94;2073388;28;20544;-62
2023/05/04 01:30:58;;;;;;;5.53;4.37;;;;;;;13.78;100.00;101763.38;2073288;28;20513;-62
2023/05/04 01:32:00;;;;;;;5.13;4.30;;;;;;;14.34;100.00;101829.19;2072136;28;20562;-63
2023/05/04 01:33:01;;;;;;;6.80;4.40;;;;;;;14.31;100.00;101827.25;2073200;28;20446;-62
2023/05/04 01:34:02;;;;;;;7.57;4.70;;;;;;;13.72;100.00;101729.63;2072699;28;20460;-63
2023/05/04 01:35:03;;;;;;;9.80;4.50;;;;;;;14.33;100.00;101824.81;2073621;28;20442;-63
2023/05/04 01:36:03;;;;;;;6.23;4.60;;;;;;;14.09;100.00;101784.25;2073378;28;20173;-63
2023/05/04 01:37:04;;;;;;;8.37;4.37;;;;;;;14.38;100.00;101829.88;2065528;28;20186;-62
2023/05/04 01:38:05;;;;;;;6.13;4.00;;;;;;;14.41;100.00;101829.03;2072345;28;20243;-62
2023/05/04 01:39:05;;;;;;;6.50;4.33;;;;;;;14.45;100.00;101824.94;2072224;28;20197;-63
2023/05/04 01:40:06;;;;;;;8.43;3.87;;;;;;;14.45;100.00;101822.16;2072610;28;20617;-62
2023/05/04 01:41:07;;;;;;;7.70;4.40;;;;;;;14.38;100.00;101804.78;2069151;28;20290;-62
2023/05/04 01:42:07;;;;;;;7.07;4.07;;;;;;;14.39;100.00;101823.13;2066926;28;20428;-63
2023/05/04 01:43:08;;;;;;;8.93;4.27;;;;;;;14.45;100.00;101824.94;2072890;28;20182;-62
2023/05/04 01:44:08;;;;;;;9.40;4.13;;;;;;;13.19;100.00;101623.25;2073643;28;20192;-62
2023/05/04 01:45:09;;;;;;;5.73;4.20;;;;;;;14.39;100.00;101815.50;2073467;28;20299;-62
2023/05/04 01:46:09;;;;;;;8.97;4.70;;;;;;;14.43;100.00;101819.03;2073209;28;20665;-64
2023/05/04 01:47:10;;;;;;;7.20;3.93;;;;;;;14.48;100.00;101814.94;2072980;28;20201;-62
2023/05/04 01:48:11;;;;;;;7.30;4.40;;;;;;;14.04;100.00;101748.53;2072760;28;20188;-62
2023/05/04 01:49:11;;;;;;;6.90;4.47;;;;;;;13.96;100.00;101736.72;2073330;28;20193;-62
2023/05/04 01:50:11;;;;;;;6.67;4.30;;;;;;;14.46;100.00;101806.22;2073019;28;20187;-62
2023/05/04 01:51:12;;;;;;;8.13;3.97;;;;;;;14.45;100.00;101819.38;2071832;28;20636;-63
2023/05/04 01:52:12;;;;;;;6.40;3.87;;;;;;;14.44;100.00;101808.66;2065446;28;20196;-63
2023/05/04 01:53:13;;;;;;;6.97;4.30;;;;;;;14.44;100.00;101812.22;2073056;28;20195;-63
2023/05/04 01:54:13;;;;;;;8.03;4.33;;;;;;;14.41;100.00;101796.38;2073271;28;20299;-62
2023/05/04 01:55:14;;;;;;;6.87;4.27;;;;;;;14.46;100.00;101804.22;2067534;28;20305;-63
2023/05/04 01:56:14;;;;;;;5.50;4.20;;;;;;;14.43;100.00;101807.88;2069758;28;20623;-63
2023/05/04 01:57:15;;;;;;;6.60;3.93;;;;;;;14.42;100.00;101797.94;2073159;28;20277;-63
2023/05/04 01:58:17;;;;;;;8.27;4.47;;;;;;;14.37;100.00;101803.22;2073455;28;20651;-62
2023/05/04 01:59:17;;;;;;;7.77;4.57;;;;;;;14.34;100.00;101807.66;2072419;28;20603;-62
2023/05/04 02:00:18;;;;;;;5.20;4.23;;;;;;;14.36;100.00;101802.44;2073509;28;20421;-62
2023/05/04 02:01:18;;;;;;;6.10;4.53;;;;;;;14.39;100.00;101806.38;2073307;28;20197;-62
2023/05/04 02:02:19;;;;;;;7.37;3.97;;;;;;;14.18;100.00;101774.09;2072771;28;20364;-62
2023/05/04 02:03:19;;;;;;;7.47;4.50;;;;;;;14.33;100.00;101799.72;2073000;28;20714;-62
2023/05/04 02:04:19;;;;;;;6.03;4.70;;;;;;;14.32;100.00;101798.94;2072699;28;20685;-62
2023/05/04 02:05:20;;;;;;;6.20;4.10;;;;;;;14.30;100.00;101792.22;2073460;28;20171;-63
2023/05/04 02:06:20;;;;;;;8.83;4.30;;;;;;;14.36;100.00;101798.84;2072792;28;20939;-62
2023/05/04 02:07:20;;;;;;;6.80;4.20;;;;;;;14.37;100.00;101795.66;2073343;28;20180;-62
2023/05/04 02:08:21;;;;;;;6.00;4.20;;;;;;;14.39;100.00;101786.84;2073022;28;20646;-62
2023/05/04 02:09:21;;;;;;;9.30;3.87;;;;;;;14.06;100.00;101754.44;2072939;28;20297;-63
2023/05/04 02:10:22;;;;;;;9.27;3.93;;;;;;;14.24;100.00;101769.63;2065592;28;20231;-62
2023/05/04 02:11:22;;;;;;;5.13;4.00;;;;;;;14.32;100.00;101779.41;2070808;28;20568;-62
2023/05/04 02:12:22;;;;;;;6.53;4.30;;;;;;;14.34;100.00;101790.16;2073067;28;20256;-63
2023/05/04 02:13:23;;;;;;;6.60;4.13;;;;;;;14.38;100.00;101788.06;2076551;28;20221;-62
2023/05/04 02:14:23;;;;;;;5.90;4.17;;;;;;;14.36;100.00;101785.72;2078334;28;20367;-63
2023/05/04 02:15:24;;;;;;;6.20;4.10;;;;;;;14.36;100.00;101784.91;2072309;28;20186;-62
2023/05/04 02:16:24;;;;;;;6.17;4.33;;;;;;;14.31;100.00;101769.50;2073083;28;20692;-63
2023/05/04 02:17:24;;;;;;;8.90;4.30;;;;;;;12.91;100.00;101549.41;2073332;28;20175;-63
2023/05/04 02:18:25;;;;;;;5.07;4.10;;;;;;;14.42;100.00;101781.19;2072824;28;20250;-63
2023/05/04 02:19:26;;;;;;;5.97;4.40;;;;;;;14.40;100.00;101780.06;2072735;28;20804;-63
2023/05/04 02:20:26;;;;;;;6.50;4.13;;;;;;;14.38;100.00;101774.91;2067638;28;20266;-62
2023/05/04 02:21:27;;;;;;;6.67;3.90;;;;;;;14.38;100.00;101776.91;2068424;28;20807;-63
2023/05/04 02:22:27;;;;;;;6.93;3.87;;;;;;;14.34;100.00;101776.97;2070382;28;20819;-63
2023/05/04 02:23:28;;;;;;;7.20;3.90;;;;;;;14.26;100.00;101781.16;2066408;28;20205;-63
2023/05/04 02:24:28;;;;;;;6.57;4.17;;;;;;;14.22;100.00;101782.41;2072292;28;20197;-62
2023/05/04 02:25:29;;;;;;;8.67;4.43;;;;;;;14.23;100.00;101778.41;2065302;28;20957;-62
2023/05/04 02:26:30;;;;;;;8.03;4.30;;;;;;;14.22;100.00;101782.41;2072215;28;20195;-62
2023/05/04 02:27:30;;;;;;;6.20;3.77;;;;;;;14.01;100.00;101752.16;2073133;28;20189;-63
2023/05/04 02:28:31;;;;;;;5.60;4.33;;;;;;;14.09;100.00;101776.66;2072885;28;20202;-61
2023/05/04 02:29:31;;;;;;;11.20;4.53;;;;;;;13.35;100.00;101668.69;2072202;28;20286;-63
2023/05/04 02:30:31;;;;;;;8.77;4.10;;;;;;;14.00;100.00;101772.88;2072584;28;20666;-63
2023/05/04 02:31:32;;;;;;;5.60;4.00;;;;;;;14.13;100.00;101785.75;2071854;28;20209;-63
2023/05/04 02:32:33;;;;;;;7.60;4.20;;;;;;;14.04;100.00;101768.81;2072555;28;20181;-62
2023/05/04 02:33:33;;;;;;;6.97;4.40;;;;;;;14.14;100.00;101789.34;2073403;28;20424;-62
2023/05/04 02:34:34;;;;;;;8.43;4.20;;;;;;;14.15;100.00;101797.25;2072760;28;20206;-63
2023/05/04 02:35:34;;;;;;;5.70;3.83;;;;;;;14.15;100.00;101791.66;2073137;28;20283;-63
2023/05/04 02:36:35;;;;;;;8.27;4.17;;;;;;;14.17;100.00;101791.25;2072635;28;20196;-62
2023/05/04 02:37:35;;;;;;;6.87;4.20;;;;;;;14.13;100.00;101793.31;2072968;28;20200;-63
2023/05/04 02:38:36;;;;;;;7.40;4.53;;;;;;;14.09;100.00;101790.59;2072724;28;20204;-62
2023/05/04 02:39:36;;;;;;;6.17;3.83;;;;;;;14.09;100.00;101793.38;2072436;28;20315;-62
2023/05/04 02:40:36;;;;;;;7.57;4.40;;;;;;;14.08;100.00;101796.63;2072126;28;20276;-62
2023/05/04 02:41:37;;;;;;;6.67;4.10;;;;;;;14.08;100.00;101791.81;2072470;28;20208;-63
2023/05/04 02:42:37;;;;;;;7.00;4.60;;;;;;;14.07;100.00;101801.41;2072377;28;20202;-63
2023/05/04 02:43:38;;;;;;;7.20;4.30;;;;;;;14.06;100.00;101802.63;2072624;28;20220;-62
2023/05/04 02:44:38;;;;;;;7.47;3.93;;;;;;;14.03;100.00;101803.47;2072649;28;20216;-62
2023/05/04 02:45:39;;;;;;;5.07;3.80;;;;;;;13.98;100.00;101803.19;2072893;28;20412;-62
2023/05/04 02:46:39;;;;;;;5.70;3.87;;;;;;;14.00;100.00;101807.13;2072585;28;20178;-63
2023/05/04 02:47:39;;;;;;;8.97;4.10;;;;;;;14.05;100.00;101815.00;2072896;28;20631;-62
2023/05/04 02:48:40;;;;;;;6.30;3.83;;;;;;;14.07;100.00;101812.56;2072691;28;20341;-62
2023/05/04 02:49:40;;;;;;;6.00;3.63;;;;;;;14.08;100.00;101811.34;2072931;28;20559;-62
2023/05/04 02:50:41;;;;;;;6.87;4.00;;;;;;;14.09;100.00;101812.13;2072089;28;20194;-63
2023/05/04 02:51:42;;;;;;;6.13;4.23;;;;;;;14.05;100.00;101831.72;2072238;28;20760;-62
2023/05/04 02:52:42;;;;;;;7.13;4.27;;;;;;;14.06;100.00;101816.56;2071574;28;20640;-62
2023/05/04 02:53:43;;;;;;;5.40;4.07;;;;;;;14.05;100.00;101814.19;2072689;28;20279;-62
2023/05/04 02:54:44;;;;;;;6.23;3.80;;;;;;;13.90;100.00;101802.53;2072382;28;20176;-63
2023/05/04 02:55:45;;;;;;;8.00;4.00;;;;;;;14.01;100.00;101816.25;2072396;28;20643;-63
2023/05/04 02:56:45;;;;;;;4.57;3.33;;;;;;;13.91;100.00;101806.09;2072980;28;20431;-62
2023/05/04 02:57:46;;;;;;;7.20;3.93;;;;;;;13.96;100.00;101811.97;2073194;28;20196;-62
2023/05/04 02:58:46;;;;;;;7.37;3.83;;;;;;;13.50;100.00;101741.59;2072568;28;20198;-62
2023/05/04 02:59:46;;;;;;;5.57;3.80;;;;;;;13.80;100.00;101788.78;2072486;28;20204;-63
2023/05/04 03:00:47;;;;;;;8.43;4.00;;;;;;;13.94;100.00;101821.97;2072296;28;20234;-63
2023/05/04 03:01:47;;;;;;;6.07;4.23;;;;;;;14.01;100.00;101813.47;2072431;28;20195;-63
2023/05/04 03:02:48;;;;;;;6.53;4.40;;;;;;;14.04;100.00;101823.78;2071805;28;20181;-62
2023/05/04 03:03:48;;;;;;;5.47;3.60;;;;;;;14.01;100.00;101821.84;2072457;28;20190;-63
2023/05/04 03:04:48;;;;;;;9.97;4.60;;;;;;;14.02;100.00;101815.84;2072573;28;20534;-62
2023/05/04 03:05:49;;;;;;;8.93;4.13;;;;;;;14.04;100.00;101834.94;2072796;28;20184;-63
2023/05/04 03:06:49;;;;;;;6.07;3.90;;;;;;;14.00;100.00;101823.84;2072598;28;20253;-62
2023/05/04 03:07:50;;;;;;;7.97;4.07;;;;;;;13.99;100.00;101827.06;2072804;28;20650;-63
2023/05/04 03:08:50;;;;;;;6.80;4.60;;;;;;;13.84;100.00;101809.78;2072340;28;20582;-63
2023/05/04 03:09:50;;;;;;;7.20;4.27;;;;;;;13.94;100.00;101822.75;2072528;28;20191;-62
2023/05/04 03:10:51;;;;;;;6.73;4.03;;;;;;;13.89;100.00;101823.22;2072458;28;20184;-62
2023/05/04 03:11:51;;;;;;;8.00;4.10;;;;;;;13.91;100.00;101834.75;2071911;28;20674;-63
2023/05/04 03:12:52;;;;;;;6.90;4.30;;;;;;;13.86;100.00;101831.66;2071741;28;20246;-63
2023/05/04 03:13:52;;;;;;;6.00;4.37;;;;;;;13.83;100.00;101836.09;2064500;28;20240;-62
2023/05/04 03:14:52;;;;;;;6.37;4.23;;;;;;;13.81;100.00;101832.94;2071611;28;20384;-62
2023/05/04 03:15:53;;;;;;;8.20;4.40;;;;;;;13.77;100.00;101843.38;2072262;28;20201;-62
2023/05/04 03:16:53;;;;;;;6.93;4.37;;;;;;;13.78;100.00;101838.59;2072710;28;20208;-61
2023/05/04 03:17:54;;;;;;;7.77;4.20;;;;;;;13.82;100.00;101839.28;2072616;28;20292;-63
2023/05/04 03:18:54;;;;;;;6.47;4.20;;;;;;;13.81;100.00;101838.53;2072844;28;20186;-63
2023/05/04 03:19:54;;;;;;;6.63;4.40;;;;;;;13.81;100.00;101841.31;2072160;28;20178;-62
2023/05/04 03:20:55;;;;;;;7.47;3.90;;;;;;;13.80;100.00;101839.75;2072329;28;20184;-62
2023/05/04 03:21:55;;;;;;;5.10;4.20;;;;;;;13.76;100.00;101844.59;2072579;28;20255;-63
2023/05/04 03:22:56;;;;;;;9.80;4.10;;;;;;;13.62;100.00;101830.13;2071848;28;20587;-63
2023/05/04 03:23:57;;;;;;;7.83;4.43;;;;;;;13.77;100.00;101837.78;2072225;28;20254;-62
2023/05/04 03:24:58;;;;;;;6.13;4.23;;;;;;;13.70;100.00;101821.22;2072168;28;20196;-62
2023/05/04 03:25:58;;;;;;;7.60;4.53;;;;;;;13.77;100.00;101848.13;2072528;28;20471;-63
2023/05/04 03:26:59;;;;;;;6.57;4.43;;;;;;;13.67;100.00;101835.97;2072094;28;20193;-63
2023/05/04 03:27:59;;;;;;;7.40;4.63;;;;;;;13.72;100.00;101846.63;2072650;28;20262;-63
2023/05/04 03:29:00;;;;;;;5.30;4.40;;;;;;;13.74;100.00;101843.44;2072110;28;20267;-62
2023/05/04 03:30:00;;;;;;;8.43;4.10;;;;;;;13.74;100.00;101849.00;2072617;28;20191;-62
2023/05/04 03:31:01;;;;;;;6.63;4.77;;;;;;;13.70;100.00;101843.50;2072411;28;20667;-63
2023/05/04 03:32:01;;;;;;;7.97;4.70;;;;;;;13.38;100.00;101803.47;2071742;28;20270;-62
2023/05/04 03:33:01;;;;;;;4.83;4.10;;;;;;;12.97;100.00;101738.94;2072308;28;20227;-62
2023/05/04 03:34:02;;;;;;;7.30;5.03;;;;;;;13.65;100.00;101845.97;2072098;28;20204;-63
2023/05/04 03:35:03;;;;;;;7.63;4.90;;;;;;;13.63;100.00;101848.41;2071964;28;20275;-62
2023/05/04 03:36:04;;;;;;;7.67;5.27;;;;;;;13.59;100.00;101851.25;2070565;28;20187;-62
2023/05/04 03:37:05;;;;;;;8.20;4.80;;;;;;;13.49;100.00;101829.13;2065034;28;20190;-62
2023/05/04 03:38:06;;;;;;;6.60;4.90;;;;;;;13.56;100.00;101848.50;2072735;28;20180;-62
2023/05/04 03:39:06;;;;;;;7.47;5.10;;;;;;;13.58;100.00;101860.03;2072123;28;20828;-62
2023/05/04 03:40:07;;;;;;;10.43;5.43;;;;;;;13.57;100.00;101859.22;2072287;28;20448;-62
2023/05/04 03:41:09;;;;;;;8.70;5.03;;;;;;;13.62;100.00;101855.19;2071933;28;20200;-62
2023/05/04 03:42:10;;;;;;;7.60;4.93;;;;;;;13.62;100.00;101863.56;2072282;28;20181;-62
2023/05/04 03:43:10;;;;;;;6.40;5.10;;;;;;;13.58;100.00;101857.25;2071548;28;20472;-62
2023/05/04 03:44:11;;;;;;;8.17;5.70;;;;;;;13.59;100.00;101865.19;2072351;28;20681;-62
2023/05/04 03:45:11;;;;;;;8.97;5.43;;;;;;;13.59;100.00;101865.19;2072178;28;20639;-62
2023/05/04 03:46:12;;;;;;;7.27;5.97;;;;;;;13.56;100.00;101857.66;2072108;28;20263;-62
2023/05/04 03:47:12;;;;;;;7.77;5.50;;;;;;;13.58;100.00;101857.25;2064415;28;20403;-62
2023/05/04 03:48:12;;;;;;;8.70;5.80;;;;;;;13.64;100.00;101866.69;2070920;28;20211;-62
2023/05/04 03:49:13;;;;;;;10.20;5.83;;;;;;;13.61;100.00;101873.91;2072542;28;20193;-62
2023/05/04 03:50:13;;;;;;;8.50;5.97;;;;;;;13.56;100.00;101863.22;2072022;28;20288;-62
2023/05/04 03:51:14;;;;;;;10.47;6.10;;;;;;;13.63;100.00;101879.06;2072078;28;20247;-62
2023/05/04 03:52:14;;;;;;;8.93;6.30;;;;;;;13.61;100.00;101875.88;2072076;28;20284;-63
2023/05/04 03:53:15;;;;;;;11.43;6.13;;;;;;;13.54;100.00;101876.00;2072194;28;20596;-62
2023/05/04 03:54:15;;;;;;;9.03;6.17;;;;;;;13.59;100.00;101875.53;2070293;28;20228;-62
2023/05/04 03:55:16;;;;;;;10.13;6.30;;;;;;;13.60;100.00;101877.09;2071366;28;20204;-62
2023/05/04 03:56:16;;;;;;;9.63;6.30;;;;;;;13.54;100.00;101862.88;2070256;28;20193;-63
2023/05/04 03:57:16;;;;;;;7.97;6.00;;;;;;;13.56;100.00;101860.44;2073703;28;20208;-68
2023/05/04 03:58:17;;;;;;;9.50;6.40;;;;;;;13.48;100.00;101853.41;2072302;28;20193;-62
2023/05/04 03:59:17;;;;;;;10.13;6.10;;;;;;;13.64;100.00;101872.25;2071299;28;20261;-61
2023/05/04 04:00:18;;;;;;;7.57;6.07;;;;;;;13.12;100.00;101805.06;2072133;28;20259;-64
2023/05/04 04:01:18;;;;;;;7.17;6.10;;;;;;;12.67;100.00;101728.66;2071506;28;20586;-63
2023/05/04 04:02:19;;;;;;;8.63;6.20;;;;;;;13.09;100.00;101796.78;2071470;28;20193;-64
2023/05/04 04:03:19;;;;;;;10.23;6.20;;;;;;;12.62;100.00;101726.34;2072121;28;20190;-63
2023/05/04 04:04:20;;;;;;;14.20;6.80;;;;;;;13.69;100.00;101886.47;2071851;28;20220;-65
2023/05/04 04:05:20;;;;;;;9.63;6.20;;;;;;;13.67;100.00;101880.56;2073489;28;20220;-65
2023/05/04 04:06:21;;;;;;;10.57;6.20;;;;;;;13.68;100.00;101882.13;2067414;28;20194;-62
2023/05/04 04:07:22;;;;;;;11.53;6.27;;;;;;;13.70;100.00;101884.50;2066744;28;20260;-66
2023/05/04 04:08:22;;;;;;;11.03;6.50;;;;;;;13.63;100.00;101879.06;2071419;28;20460;-68
2023/05/04 04:09:23;;;;;;;10.47;7.10;;;;;;;13.54;100.00;101865.66;2070781;28;20181;-63
2023/05/04 04:10:23;;;;;;;9.70;6.40;;;;;;;13.73;100.00;101895.56;2064795;28;20182;-65
2023/05/04 04:11:25;;;;;;;7.43;6.10;;;;;;;13.72;100.00;101895.97;2071622;28;20644;-62
2023/05/04 04:12:25;;;;;;;11.50;6.57;;;;;;;12.88;100.00;101775.63;2071358;28;20193;-62
2023/05/04 04:13:26;;;;;;;10.43;7.80;;;;;;;13.66;100.00;101884.56;2072105;28;20456;-63
2023/05/04 04:14:27;;;;;;;8.97;6.37;;;;;;;13.74;100.00;101893.59;2071927;28;20562;-71
2023/05/04 04:15:27;;;;;;;12.17;6.33;;;;;;;13.65;100.00;101880.19;2071663;28;20452;-64
2023/05/04 04:16:27;;;;;;;9.67;6.67;;;;;;;13.75;100.00;101895.94;2069502;28;20228;-64
2023/05/04 04:17:28;;;;;;;9.00;6.20;;;;;;;13.75;100.00;101892.38;2065585;28;20186;-65
2023/05/04 04:18:28;;;;;;;11.63;6.60;;;;;;;13.31;100.00;101823.06;2071521;28;20653;-63
2023/05/04 04:19:29;;;;;;;13.40;5.90;;;;;;;13.28;100.00;101818.34;2072030;28;20651;-64
2023/05/04 04:20:29;;;;;;;7.30;5.37;;;;;;;13.72;100.00;101895.97;2071867;28;20661;-64
2023/05/04 04:21:30;;;;;;;9.47;6.33;;;;;;;13.66;100.00;101887.34;2071459;28;20197;-63
2023/05/04 04:22:30;;;;;;;11.07;6.00;;;;;;;13.75;100.00;101901.53;2071420;28;20659;-62
2023/05/04 04:23:31;;;;;;;10.27;6.60;;;;;;;13.81;100.00;101901.81;2071886;28;20271;-63
2023/05/04 04:24:32;;;;;;;8.80;5.87;;;;;;;13.85;100.00;101899.75;2071962;28;20193;-64
2023/05/04 04:25:32;;;;;;;6.97;5.77;;;;;;;13.22;100.00;101806.91;2071812;28;20193;-62
2023/05/04 04:26:34;;;;;;;10.07;6.00;;;;;;;13.88;100.00;101896.91;2071213;28;20451;-62
2023/05/04 04:27:35;;;;;;;10.00;5.60;;;;;;;13.90;100.00;101907.63;2072055;28;20209;-59
2023/05/04 04:28:35;;;;;;;7.53;6.00;;;;;;;13.92;100.00;101905.19;2070396;28;21019;-61
2023/05/04 04:29:36;;;;;;;8.23;5.60;;;;;;;13.94;100.00;101906.34;2071598;28;20451;-60
2023/05/04 04:30:36;;;;;;;7.33;5.80;;;;;;;13.92;100.00;101908.00;2072644;28;20631;-63
2023/05/04 04:31:38;;;;;;;7.37;5.53;;;;;;;13.95;100.00;101910.75;2067923;28;20229;-63
2023/05/04 04:32:39;;;;;;;7.03;6.23;;;;;;;12.39;100.00;101667.06;2064828;28;20240;-63
2023/05/04 04:33:39;;;;;;;9.43;5.60;;;;;;;13.95;100.00;101907.94;2064764;28;20414;-63
2023/05/04 04:34:40;;;;;;;7.97;5.97;;;;;;;13.40;100.00;101815.75;2064984;28;20174;-60
2023/05/04 04:35:40;;;;;;;17.37;12.13;;;;;;;14.00;100.00;101913.03;2071816;28;20260;-60
2023/05/04 04:36:41;;;;;;;9.90;6.30;;;;;;;14.04;100.00;101915.75;2071347;28;20199;-60
2023/05/04 04:37:41;;;;;;;13.57;10.83;;;;;;;13.98;100.00;101893.16;2071365;28;20200;-60
2023/05/04 04:38:42;;;;;;;9.30;6.33;;;;;;;14.13;100.00;101913.97;2070331;28;20211;-59
2023/05/04 04:39:42;;;;;;;10.90;7.30;;;;;;;14.15;100.00;101908.00;2071334;28;20229;-61
2023/05/04 04:40:43;;;;;;;7.33;5.73;;;;;;;14.14;100.00;101912.00;2071418;28;20205;-61